Marshall, Missouri
Current Conditions -  °F | °C
As of 7:53 PM on Sunday 25 Jan 2015 (Local Time) from KDMO Reporting Station
Overcast Overcast  
Wind Chill: 25°   Ceiling: 1000
Heat Index: 34°   Visibility: 10mi
Dew Point: 30°   Wind: 12mph
Humidity: 85%   Direction: 350°N
Pressure: 30.07"   Gusts: NA
Location:  39.12°N, 93.19°W
Report Text: KDMO 260153Z AUTO 35010KT 10SM OVC010 01/M01 A3007 RMK AO2 SLP187 T00111011
Loading
Personal Weather Stations






























Interactive Weather Map New forecast layout! Learn more

10-Day Weather Forecast

Advertisements
Track Severe Weather on mobile